Time;durP1;ratioP1;P1;durP2;ratioP2;P2;SDS_P1;SDS_P2;PMS_P1;PMS_P2;Temp;Humidity;BMP_temperature;BMP_pressure;BME280_temperature;BME280_humidity;BME280_pressure;Samples;Min_cycle;Max_cycle;Signal;HPM_P1;HPM_P2
2023/01/26 00:01:38;;;;;;;;;;;;;;;21.60;22.14;98659.38;5077953;28;1074;-79
2023/01/26 00:04:03;;;;;;;;;;;;;;;21.45;22.25;98658.84;5109757;28;937;-79
2023/01/26 00:06:29;;;;;;;;;;;;;;;21.18;22.17;98650.28;5093907;28;986;-80
2023/01/26 00:08:55;;;;;;;;;;;;;;;20.85;22.75;98654.00;5110374;28;723;-79
2023/01/26 00:11:25;;;;;;;;;;;;;;;21.00;22.58;98655.41;5110229;28;877;-79
2023/01/26 00:13:51;;;;;;;;;;;;;;;21.23;22.42;98649.81;5076889;28;1914;-79
2023/01/26 00:16:16;;;;;;;;;;;;;;;21.45;22.30;98658.00;5090028;28;1732;-80
2023/01/26 00:18:42;;;;;;;;;;;;;;;21.76;21.55;98658.72;5056391;28;1121;-79
2023/01/26 00:21:07;;;;;;;;;;;;;;;21.08;22.36;98662.56;5058363;28;806;-79
2023/01/26 00:23:33;;;;;;;;;;;;;;;21.27;22.49;98650.56;5057430;28;767;-79
2023/01/26 00:25:59;;;;;;;;;;;;;;;20.91;22.99;98653.09;5058264;28;831;-79
2023/01/26 00:28:24;;;;;;;;;;;;;;;21.82;21.40;98649.31;5089780;28;880;-79
2023/01/26 00:30:50;;;;;;;;;;;;;;;21.64;21.96;98645.97;5056936;28;1456;-79
2023/01/26 00:33:15;;;;;;;;;;;;;;;21.70;21.73;98647.06;5055951;28;1180;-79
2023/01/26 00:35:44;;;;;;;;;;;;;;;21.57;21.88;98643.25;5057941;28;1906;-79
2023/01/26 00:38:12;;;;;;;;;;;;;;;21.19;22.23;98640.59;5056278;28;1561;-79
2023/01/26 00:40:40;;;;;;;;;;;;;;;21.08;22.31;98635.06;5089566;28;857;-79
2023/01/26 00:43:05;;;;;;;;;;;;;;;21.66;21.79;98640.69;5092023;28;1272;-79
2023/01/26 00:45:31;;;;;;;;;;;;;;;21.53;21.91;98631.19;5058238;28;1163;-80
2023/01/26 00:47:56;;;;;;;;;;;;;;;21.73;21.64;98629.22;5058383;28;944;-79
2023/01/26 00:50:22;;;;;;;;;;;;;;;21.38;22.08;98635.47;5092898;28;1500;-79
2023/01/26 00:52:48;;;;;;;;;;;;;;;21.33;22.09;98625.44;5112222;28;861;-80
2023/01/26 00:55:13;;;;;;;;;;;;;;;21.46;22.18;98622.81;5112364;28;1913;-79
2023/01/26 00:57:39;;;;;;;;;;;;;;;21.62;22.01;98617.28;5112464;28;1244;-79
2023/01/26 01:00:05;;;;;;;;;;;;;;;21.64;22.00;98609.16;5094597;28;1560;-80
2023/01/26 01:02:30;;;;;;;;;;;;;;;21.11;22.26;98604.34;5038109;28;902;-79
2023/01/26 01:04:56;;;;;;;;;;;;;;;21.11;22.53;98613.63;5038019;28;962;-80
2023/01/26 01:07:21;;;;;;;;;;;;;;;21.07;22.37;98604.38;5037827;28;1666;-79
2023/01/26 01:09:47;;;;;;;;;;;;;;;21.57;21.82;98597.97;5038442;28;1546;-79
2023/01/26 01:12:12;;;;;;;;;;;;;;;21.37;22.09;98595.03;5038950;28;1254;-80
2023/01/26 01:14:38;;;;;;;;;;;;;;;21.66;21.86;98592.53;5038350;28;1914;-80
2023/01/26 01:17:03;;;;;;;;;;;;;;;21.27;22.16;98590.34;5072135;28;795;-79
2023/01/26 01:19:29;;;;;;;;;;;;;;;21.21;22.42;98587.19;5055076;28;780;-79
2023/01/26 01:21:54;;;;;;;;;;;;;;;21.15;22.56;98600.22;5054916;28;841;-79
2023/01/26 01:24:20;;;;;;;;;;;;;;;21.41;21.98;98589.34;5070525;28;1484;-80
2023/01/26 01:26:46;;;;;;;;;;;;;;;21.37;22.22;98582.94;5038365;28;1129;-80
2023/01/26 01:29:11;;;;;;;;;;;;;;;21.53;22.13;98574.56;5054553;28;862;-79
2023/01/26 01:31:37;;;;;;;;;;;;;;;21.75;21.60;98581.44;5055077;28;1036;-80
2023/01/26 01:34:02;;;;;;;;;;;;;;;21.41;22.33;98583.69;5054373;28;1910;-79
2023/01/26 01:36:30;;;;;;;;;;;;;;;21.10;22.59;98592.22;5054782;28;950;-79
2023/01/26 01:38:55;;;;;;;;;;;;;;;21.10;22.67;98580.91;5039113;28;1532;-80
2023/01/26 01:41:21;;;;;;;;;;;;;;;21.54;22.28;98584.66;5057259;28;842;-79
2023/01/26 01:43:47;;;;;;;;;;;;;;;21.43;22.29;98587.66;5072442;28;1600;-79
2023/01/26 01:46:14;;;;;;;;;;;;;;;21.43;21.99;98581.19;5089734;28;793;-80
2023/01/26 01:48:40;;;;;;;;;;;;;;;21.25;22.45;98578.66;5072150;28;1101;-80
2023/01/26 01:51:07;;;;;;;;;;;;;;;21.06;22.47;98574.50;5057669;28;747;-80
2023/01/26 01:53:36;;;;;;;;;;;;;;;21.42;22.34;98573.94;5071443;28;1982;-80
2023/01/26 01:56:03;;;;;;;;;;;;;;;21.30;22.53;98579.00;5089866;28;751;-79
2023/01/26 01:58:29;;;;;;;;;;;;;;;21.77;21.98;98578.19;5074505;28;1217;-80
2023/01/26 02:00:54;;;;;;;;;;;;;;;21.71;21.95;98580.72;5060948;28;707;-80
2023/01/26 02:03:20;;;;;;;;;;;;;;;21.19;22.70;98572.69;5092863;28;829;-79
2023/01/26 02:05:51;;;;;;;;;;;;;;;21.15;22.58;98571.94;5076144;28;853;-80
2023/01/26 02:08:18;;;;;;;;;;;;;;;21.44;22.14;98563.78;5074385;28;1500;-80
2023/01/26 02:10:44;;;;;;;;;;;;;;;21.44;22.38;98571.47;5078448;28;1125;-80
2023/01/26 02:13:09;;;;;;;;;;;;;;;21.33;22.30;98578.13;5061412;28;1191;-80
2023/01/26 02:15:35;;;;;;;;;;;;;;;21.42;22.21;98573.94;5061430;28;1984;-79
2023/01/26 02:18:01;;;;;;;;;;;;;;;21.28;22.40;98575.75;5061207;28;1039;-80
2023/01/26 02:20:39;;;;;;;;;;;;;;;21.30;22.63;98561.22;5061421;28;763;-80
2023/01/26 02:23:28;;;;;;;;;;;;;;;21.45;22.27;98561.75;5060410;28;1622;-80
2023/01/26 02:25:56;;;;;;;;;;;;;;;21.41;22.59;98561.03;5021504;28;1130;-79
2023/01/26 02:28:24;;;;;;;;;;;;;;;21.84;22.04;98556.19;5021178;28;1087;-80
2023/01/26 02:30:49;;;;;;;;;;;;;;;21.24;22.63;98555.22;5021683;28;1162;-79
2023/01/26 02:33:18;;;;;;;;;;;;;;;21.24;22.38;98552.38;5020985;28;1165;-79
2023/01/26 02:35:43;;;;;;;;;;;;;;;21.05;22.98;98550.25;5021342;28;1918;-80
2023/01/26 02:41:07;;;;;;;;;;;;;;;22.11;21.51;98535.47;5036532;28;1679;-77
2023/01/26 02:43:33;;;;;;;;;;;;;;;21.39;22.38;98532.34;5005303;28;1233;-77
2023/01/26 02:45:58;;;;;;;;;;;;;;;21.03;23.16;98524.41;5005854;28;1104;-77
2023/01/26 02:51:07;;;;;;;;;;;;;;;21.57;22.13;98513.00;5023738;28;1478;-76
2023/01/26 02:53:33;;;;;;;;;;;;;;;21.60;22.04;98506.47;5038009;28;1902;-76
2023/01/26 02:55:59;;;;;;;;;;;;;;;21.51;22.28;98509.88;5038342;28;1327;-77
2023/01/26 02:58:25;;;;;;;;;;;;;;;21.46;22.64;98507.53;5038371;28;1182;-76
2023/01/26 03:00:51;;;;;;;;;;;;;;;21.22;22.84;98520.84;5037503;28;1515;-77
2023/01/26 03:03:23;;;;;;;;;;;;;;;21.24;22.76;98524.06;5021361;28;1257;-77
2023/01/26 03:05:49;;;;;;;;;;;;;;;21.62;22.17;98526.66;5005372;28;1401;-76
2023/01/26 03:08:14;;;;;;;;;;;;;;;21.61;22.49;98525.06;5004923;28;1166;-77
2023/01/26 03:10:40;;;;;;;;;;;;;;;21.24;22.62;98518.41;5020722;28;1605;-76
2023/01/26 03:13:05;;;;;;;;;;;;;;;21.19;22.71;98515.25;5037388;28;1596;-76
2023/01/26 03:15:51;;;;;;;;;;;;;;;21.00;22.98;98508.31;4988067;28;1914;-77
2023/01/26 03:27:25;;;;;;;;;;;;;;;21.04;22.97;98514.72;5004152;28;1167;-77
2023/01/26 03:29:52;;;;;;;;;;;;;;;20.96;23.02;98513.22;5001550;28;1302;-76
2023/01/26 03:35:53;;;;;;;;;;;;;;;21.26;22.93;98501.78;5018549;28;671;-77
2023/01/26 03:38:20;;;;;;;;;;;;;;;21.35;22.67;98500.44;4999773;28;1535;-77
2023/01/26 03:57:18;;;;;;;;;;;;;;;21.13;22.83;98509.28;4947712;28;1404;-77
2023/01/26 03:59:44;;;;;;;;;;;;;;;21.03;23.11;98501.78;4960162;28;1525;-77
2023/01/26 04:10:31;;;;;;;;;;;;;;;21.57;22.47;98493.97;4969008;28;1496;-77
2023/01/26 04:21:28;;;;;;;;;;;;;;;21.32;22.96;98494.44;4983080;28;806;-77
2023/01/26 04:23:56;;;;;;;;;;;;;;;21.49;22.68;98488.88;4982090;28;1259;-77
2023/01/26 04:26:25;;;;;;;;;;;;;;;21.55;22.46;98492.81;4997737;28;1060;-77
2023/01/26 04:28:52;;;;;;;;;;;;;;;21.26;22.72;98490.47;4981399;28;1581;-77
2023/01/26 04:31:17;;;;;;;;;;;;;;;20.94;23.53;98493.03;5000431;28;1103;-76
2023/01/26 04:33:46;;;;;;;;;;;;;;;20.71;23.81;98485.31;4976021;28;1902;-76
2023/01/26 04:36:12;;;;;;;;;;;;;;;21.31;22.89;98490.00;4976862;28;948;-77
2023/01/26 04:38:42;;;;;;;;;;;;;;;21.45;22.63;98493.78;4975881;28;1310;-77
2023/01/26 04:41:08;;;;;;;;;;;;;;;21.57;22.81;98490.34;4976223;28;1425;-77
2023/01/26 04:43:41;;;;;;;;;;;;;;;21.44;22.76;98493.00;4976525;28;1243;-76
2023/01/26 04:46:06;;;;;;;;;;;;;;;21.07;23.25;98479.88;4976597;28;1879;-76
2023/01/26 04:48:33;;;;;;;;;;;;;;;20.94;23.56;98487.38;4976565;28;1063;-77
2023/01/26 04:54:34;;;;;;;;;;;;;;;21.19;23.14;98493.44;4975997;28;1914;-76
2023/01/26 04:57:03;;;;;;;;;;;;;;;21.20;23.37;98492.19;4961323;28;1101;-77
2023/01/26 04:59:28;;;;;;;;;;;;;;;21.38;22.85;98493.94;4960228;28;1078;-76
2023/01/26 05:05:36;;;;;;;;;;;;;;;20.98;23.58;98486.06;5010955;28;775;-77
2023/01/26 05:08:05;;;;;;;;;;;;;;;20.71;23.95;98469.13;4999985;28;1431;-77
2023/01/26 05:10:32;;;;;;;;;;;;;;;21.16;23.18;98485.00;5016263;28;1564;-76
2023/01/26 05:13:16;;;;;;;;;;;;;;;21.51;22.65;98483.59;5002475;28;1222;-76
2023/01/26 05:16:01;;;;;;;;;;;;;;;21.74;22.65;98477.88;5016503;28;1196;-78
2023/01/26 05:18:45;;;;;;;;;;;;;;;20.97;23.61;98473.16;4984001;28;1085;-78
2023/01/26 05:21:26;;;;;;;;;;;;;;;21.01;23.49;98481.59;4998326;28;1215;-78
2023/01/26 05:23:52;;;;;;;;;;;;;;;21.26;23.28;98473.50;4999220;28;1381;-77
2023/01/26 05:26:31;;;;;;;;;;;;;;;21.40;23.24;98480.13;5006552;28;1254;-77
2023/01/26 05:29:03;;;;;;;;;;;;;;;21.25;23.17;98469.06;5005547;28;1262;-78
2023/01/26 05:31:28;;;;;;;;;;;;;;;21.56;22.88;98474.59;5016679;28;1391;-78
2023/01/26 05:33:54;;;;;;;;;;;;;;;21.06;23.41;98478.28;4998248;28;1910;-78
2023/01/26 05:36:22;;;;;;;;;;;;;;;21.19;23.20;98482.13;5007492;28;1540;-78
2023/01/26 05:38:47;;;;;;;;;;;;;;;21.18;23.26;98486.16;5002574;28;1492;-78
2023/01/26 05:41:14;;;;;;;;;;;;;;;21.46;22.79;98479.22;5002609;28;1347;-78
2023/01/26 05:43:55;;;;;;;;;;;;;;;21.59;22.79;98496.38;5000998;28;1445;-79
2023/01/26 05:46:33;;;;;;;;;;;;;;;21.10;23.49;98490.34;5004071;28;1306;-79
2023/01/26 05:49:00;;;;;;;;;;;;;;;20.85;23.78;98487.13;4989659;28;1411;-78
2023/01/26 05:51:26;;;;;;;;;;;;;;;21.12;23.43;98482.22;4987252;28;1143;-78
2023/01/26 05:53:51;;;;;;;;;;;;;;;21.49;23.22;98475.50;4995629;28;1906;-78
2023/01/26 05:56:17;;;;;;;;;;;;;;;21.43;22.94;98473.63;4964410;28;1132;-78
2023/01/26 05:58:49;;;;;;;;;;;;;;;21.83;22.61;98475.28;4981372;28;1258;-78
2023/01/26 06:01:14;;;;;;;;;;;;;;;21.46;23.09;98484.09;4970607;28;1346;-78
2023/01/26 06:03:48;;;;;;;;;;;;;;;21.19;23.33;98479.28;4948209;28;1260;-78
2023/01/26 06:06:13;;;;;;;;;;;;;;;21.12;23.43;98487.88;4963261;28;1164;-79
2023/01/26 06:08:48;;;;;;;;;;;;;;;21.17;23.34;98473.25;4962850;28;1247;-79
2023/01/26 06:11:32;;;;;;;;;;;;;;;21.40;23.06;98474.47;4965806;28;755;-78
2023/01/26 06:17:49;;;;;;;;;;;;;;;21.02;23.57;98478.34;4978849;28;742;-78
2023/01/26 06:20:17;;;;;;;;;;;;;;;21.03;23.77;98476.31;4959641;28;1124;-79
2023/01/26 06:22:52;;;;;;;;;;;;;;;21.35;23.42;98475.81;4998716;28;1183;-78
2023/01/26 06:25:17;;;;;;;;;;;;;;;21.60;22.83;98472.47;4998308;28;1127;-78
2023/01/26 06:27:43;;;;;;;;;;;;;;;21.85;22.44;98452.97;4981929;28;1152;-78
2023/01/26 06:30:18;;;;;;;;;;;;;;;21.50;23.12;98465.81;4967356;28;1576;-78
2023/01/26 06:32:45;;;;;;;;;;;;;;;21.08;23.58;98464.50;4981741;28;1138;-78
2023/01/26 06:35:11;;;;;;;;;;;;;;;21.25;23.47;98457.75;4981586;28;1993;-78
2023/01/26 06:37:38;;;;;;;;;;;;;;;21.72;23.02;98466.19;4998238;28;1242;-77
2023/01/26 06:40:04;;;;;;;;;;;;;;;21.73;22.65;98462.13;4981306;28;1124;-77
2023/01/26 06:42:30;;;;;;;;;;;;;;;22.08;22.31;98457.75;4981821;28;1417;-77
2023/01/26 06:44:57;;;;;;;;;;;;;;;21.26;23.26;98467.84;4965527;28;1183;-76
2023/01/26 06:47:23;;;;;;;;;;;;;;;21.06;23.91;98473.44;4981947;28;1123;-77
2023/01/26 06:49:49;;;;;;;;;;;;;;;21.01;23.66;98470.28;4981765;28;1157;-77
2023/01/26 06:52:30;;;;;;;;;;;;;;;21.14;23.61;98479.78;4965804;28;1176;-77
2023/01/26 06:55:00;;;;;;;;;;;;;;;21.12;23.98;98470.91;4981595;28;1918;-77
2023/01/26 06:58:04;;;;;;;;;;;;;;;21.43;23.15;98459.47;4939668;29;708;-76
2023/01/26 07:00:53;;;;;;;;;;;;;;;21.43;23.27;98459.47;4912793;29;1427;-77
2023/01/26 07:03:25;;;;;;;;;;;;;;;21.14;23.66;98459.16;4920572;29;975;-77
2023/01/26 07:05:51;;;;;;;;;;;;;;;20.90;23.95;98452.69;4920540;29;701;-77
2023/01/26 07:08:16;;;;;;;;;;;;;;;21.07;23.75;98451.59;4920396;29;892;-77
2023/01/26 07:10:41;;;;;;;;;;;;;;;21.31;23.41;98449.59;4920648;29;862;-78
2023/01/26 07:13:07;;;;;;;;;;;;;;;21.31;23.62;98450.38;4888804;29;840;-76
2023/01/26 07:15:32;;;;;;;;;;;;;;;21.39;23.23;98438.91;4920584;29;1966;-77
2023/01/26 07:17:58;;;;;;;;;;;;;;;21.12;23.51;98447.47;4920518;29;764;-76
2023/01/26 07:20:24;;;;;;;;;;;;;;;20.98;23.91;98446.47;4920286;29;760;-77
2023/01/26 07:22:49;;;;;;;;;;;;;;;20.88;23.99;98443.81;4920335;29;1048;-77
2023/01/26 07:25:15;;;;;;;;;;;;;;;21.27;23.45;98446.78;4920122;29;795;-77
2023/01/26 07:27:40;;;;;;;;;;;;;;;21.04;24.12;98441.16;4923165;28;1057;-77
2023/01/26 07:30:06;;;;;;;;;;;;;;;21.39;23.35;98441.75;4997791;28;727;-78
2023/01/26 07:32:32;;;;;;;;;;;;;;;21.49;23.11;98427.38;4999300;28;787;-78
2023/01/26 07:38:32;;;;;;;;;;;;;;;21.06;23.91;98428.16;4998771;28;1042;-77
2023/01/26 07:40:58;;;;;;;;;;;;;;;21.44;23.59;98429.91;4997638;28;898;-77
2023/01/26 07:43:23;;;;;;;;;;;;;;;21.30;23.65;98431.00;4998394;28;763;-77
2023/01/26 07:45:52;;;;;;;;;;;;;;;21.37;23.75;98419.53;4997725;28;752;-78
2023/01/26 07:48:18;;;;;;;;;;;;;;;21.19;23.81;98425.53;4997106;28;738;-77
2023/01/26 07:50:44;;;;;;;;;;;;;;;21.09;23.84;98420.84;4999169;28;723;-77
2023/01/26 07:53:11;;;;;;;;;;;;;;;21.21;23.91;98411.72;4980444;28;1161;-77
2023/01/26 07:55:37;;;;;;;;;;;;;;;21.46;23.31;98411.28;4997644;28;1985;-77
2023/01/26 07:58:02;;;;;;;;;;;;;;;21.31;23.49;98410.75;4997739;28;1234;-77
2023/01/26 08:00:28;;;;;;;;;;;;;;;21.69;23.11;98407.56;4998679;28;795;-78
2023/01/26 08:02:53;;;;;;;;;;;;;;;21.20;23.91;98407.31;4998528;28;800;-77
2023/01/26 08:05:19;;;;;;;;;;;;;;;21.08;23.97;98402.25;4981353;28;1231;-77
2023/01/26 08:07:44;;;;;;;;;;;;;;;21.29;23.67;98407.50;4980917;28;1105;-77
2023/01/26 08:10:11;;;;;;;;;;;;;;;21.46;23.52;98396.34;4996625;28;783;-77
2023/01/26 08:12:36;;;;;;;;;;;;;;;21.64;23.14;98393.91;4997960;28;859;-77
2023/01/26 08:15:02;;;;;;;;;;;;;;;21.47;23.72;98400.75;4998252;28;1923;-77
2023/01/26 08:17:28;;;;;;;;;;;;;;;21.36;23.62;98397.34;4996469;28;1424;-77
2023/01/26 08:19:53;;;;;;;;;;;;;;;21.22;23.86;98401.19;4997302;28;1119;-78
2023/01/26 08:22:18;;;;;;;;;;;;;;;21.05;24.02;98409.59;4998292;28;758;-77
2023/01/26 08:24:44;;;;;;;;;;;;;;;21.18;23.87;98415.41;4997395;28;1120;-77
2023/01/26 08:27:09;;;;;;;;;;;;;;;21.35;23.93;98415.53;4997194;28;758;-77
2023/01/26 08:29:35;;;;;;;;;;;;;;;21.38;23.80;98420.34;4998263;28;731;-77
2023/01/26 08:32:00;;;;;;;;;;;;;;;21.31;23.68;98422.06;4997329;28;795;-76
2023/01/26 08:34:26;;;;;;;;;;;;;;;21.16;24.12;98426.38;4997891;28;1914;-77
2023/01/26 08:36:51;;;;;;;;;;;;;;;21.19;23.82;98424.69;4996652;28;806;-77
2023/01/26 08:39:17;;;;;;;;;;;;;;;21.31;24.02;98424.91;4997874;28;1044;-78
2023/01/26 08:41:42;;;;;;;;;;;;;;;21.60;23.46;98413.00;4996285;28;771;-79
2023/01/26 08:44:08;;;;;;;;;;;;;;;21.19;24.14;98405.72;4997664;28;787;-78
2023/01/26 08:46:33;;;;;;;;;;;;;;;21.03;24.32;98406.38;5003578;28;1095;-78
2023/01/26 08:48:59;;;;;;;;;;;;;;;21.12;24.20;98397.34;4981763;28;1322;-78
2023/01/26 08:51:24;;;;;;;;;;;;;;;21.27;23.92;98404.31;4996207;28;1199;-79
2023/01/26 08:53:52;;;;;;;;;;;;;;;21.64;23.64;98393.13;5012585;28;1922;-78
2023/01/26 08:56:17;;;;;;;;;;;;;;;21.64;23.35;98393.13;5000590;28;1246;-78
2023/01/26 08:58:43;;;;;;;;;;;;;;;21.62;23.52;98385.06;4979263;28;1231;-78
2023/01/26 09:01:12;;;;;;;;;;;;;;;21.17;24.29;98394.00;5006706;28;1289;-78
2023/01/26 09:03:37;;;;;;;;;;;;;;;21.11;24.50;98384.41;4970978;28;1337;-78
2023/01/26 09:06:03;;;;;;;;;;;;;;;21.43;23.87;98378.16;5015603;28;759;-78
2023/01/26 09:08:28;;;;;;;;;;;;;;;21.49;23.60;98375.63;5018921;28;794;-78
2023/01/26 09:10:54;;;;;;;;;;;;;;;21.50;23.99;98366.72;4963829;28;1417;-78
2023/01/26 09:13:19;;;;;;;;;;;;;;;21.13;24.22;98367.78;4963868;28;1231;-78
2023/01/26 09:15:45;;;;;;;;;;;;;;;21.17;24.26;98360.03;4941585;29;1906;-78
2023/01/26 09:18:11;;;;;;;;;;;;;;;21.47;23.77;98361.13;4925677;29;1154;-77
2023/01/26 09:20:37;;;;;;;;;;;;;;;21.24;24.28;98356.28;4941186;29;909;-79
2023/01/26 09:23:02;;;;;;;;;;;;;;;21.32;23.91;98352.13;4941232;29;1003;-78
2023/01/26 09:25:27;;;;;;;;;;;;;;;21.55;23.63;98339.91;4941164;29;897;-78
2023/01/26 09:27:53;;;;;;;;;;;;;;;21.16;24.15;98335.81;4903545;29;1234;-77
2023/01/26 09:33:53;;;;;;;;;;;;;;;21.22;24.35;98317.09;4903119;29;1922;-77
2023/01/26 09:36:18;;;;;;;;;;;;;;;21.41;24.11;98329.69;4903686;29;1169;-78
2023/01/26 09:38:44;;;;;;;;;;;;;;;21.49;23.78;98319.78;4902810;29;1151;-77
2023/01/26 09:41:09;;;;;;;;;;;;;;;21.22;24.15;98322.75;4903127;29;931;-78
2023/01/26 09:43:54;;;;;;;;;;;;;;;21.03;24.46;98309.38;4902836;29;1374;-79
2023/01/26 09:46:39;;;;;;;;;;;;;;;21.18;24.32;98309.91;4887802;29;967;-78
2023/01/26 09:49:06;;;;;;;;;;;;;;;21.37;24.07;98305.53;4918579;29;1266;-78
2023/01/26 09:51:32;;;;;;;;;;;;;;;21.26;24.19;98298.03;4922010;29;903;-78
2023/01/26 09:53:59;;;;;;;;;;;;;;;21.39;24.02;98295.34;4937484;29;1985;-78
2023/01/26 09:56:27;;;;;;;;;;;;;;;21.62;23.69;98285.97;4944086;29;815;-78
2023/01/26 09:59:15;;;;;;;;;;;;;;;21.41;24.20;98283.59;4944382;29;1322;-78
2023/01/26 10:05:21;;;;;;;;;;;;;;;21.06;24.44;98266.88;4930605;29;1091;-78
2023/01/26 10:07:46;;;;;;;;;;;;;;;21.62;23.99;98259.69;4940570;29;728;-78
2023/01/26 10:10:16;;;;;;;;;;;;;;;21.64;23.79;98258.00;4940607;29;1292;-79
2023/01/26 10:12:41;;;;;;;;;;;;;;;21.31;24.09;98257.91;4925131;29;1149;-78
2023/01/26 10:15:11;;;;;;;;;;;;;;;21.39;24.39;98257.75;4922361;29;1918;-77
2023/01/26 10:17:39;;;;;;;;;;;;;;;21.41;24.14;98256.09;4957929;28;1527;-77
2023/01/26 10:20:07;;;;;;;;;;;;;;;21.73;23.74;98263.88;4958206;29;1158;-77
2023/01/26 10:22:43;;;;;;;;;;;;;;;22.06;23.18;98250.53;4958526;29;1054;-77
2023/01/26 10:25:15;;;;;;;;;;;;;;;21.65;23.77;98247.47;4958531;29;971;-77
2023/01/26 10:27:41;;;;;;;;;;;;;;;21.13;24.49;98234.81;4958481;29;999;-77
2023/01/26 10:30:11;;;;;;;;;;;;;;;21.09;24.86;98242.59;4942715;28;1291;-77
2023/01/26 10:32:36;;;;;;;;;;;;;;;21.26;24.78;98221.59;4958388;29;1055;-77
2023/01/26 10:35:02;;;;;;;;;;;;;;;21.40;24.68;98225.38;4958330;29;1910;-77
2023/01/26 10:37:28;;;;;;;;;;;;;;;21.39;24.40;98215.28;4958547;28;1027;-77
2023/01/26 10:39:58;;;;;;;;;;;;;;;21.49;24.44;98222.75;5018654;28;1274;-77
2023/01/26 10:42:23;;;;;;;;;;;;;;;21.26;24.47;98210.28;5018430;28;1187;-77
2023/01/26 10:44:49;;;;;;;;;;;;;;;20.99;24.92;98201.19;5018531;28;1060;-76
2023/01/26 10:47:15;;;;;;;;;;;;;;;21.43;24.33;98207.53;5001375;28;960;-77
2023/01/26 10:49:40;;;;;;;;;;;;;;;21.22;24.80;98211.59;4999188;28;1183;-76
2023/01/26 10:52:16;;;;;;;;;;;;;;;21.49;24.24;98203.72;5018434;28;1360;-77
2023/01/26 10:54:43;;;;;;;;;;;;;;;21.10;24.96;98206.59;5017955;28;1973;-76
2023/01/26 10:57:24;;;;;;;;;;;;;;;21.10;24.83;98201.75;5018091;28;1218;-77
2023/01/26 10:59:49;;;;;;;;;;;;;;;21.29;24.49;98206.56;5000988;28;1227;-76
2023/01/26 11:02:14;;;;;;;;;;;;;;;21.64;24.36;98200.56;5018229;28;1281;-77
2023/01/26 11:04:40;;;;;;;;;;;;;;;21.56;24.47;98195.09;5017947;28;1286;-76
2023/01/26 11:07:26;;;;;;;;;;;;;;;21.37;24.30;98197.97;5017788;28;1183;-76
2023/01/26 11:09:51;;;;;;;;;;;;;;;21.00;25.21;98197.91;4975735;28;1318;-76
2023/01/26 11:12:18;;;;;;;;;;;;;;;21.14;25.15;98185.50;4957590;28;1244;-76
2023/01/26 11:14:57;;;;;;;;;;;;;;;21.39;24.52;98193.44;4957726;28;1906;-76
2023/01/26 11:17:24;;;;;;;;;;;;;;;21.64;24.17;98195.69;4941577;29;1089;-77
2023/01/26 11:20:00;;;;;;;;;;;;;;;21.70;24.05;98193.94;4941565;28;915;-76
2023/01/26 11:22:25;;;;;;;;;;;;;;;21.34;24.57;98193.97;4942461;28;1097;-77
2023/01/26 11:24:51;;;;;;;;;;;;;;;21.47;24.58;98185.59;4976627;28;1282;-77
2023/01/26 11:27:19;;;;;;;;;;;;;;;21.18;25.04;98193.88;4976204;28;1223;-77
2023/01/26 11:30:05;;;;;;;;;;;;;;;21.46;24.65;98184.00;4952085;28;1369;-77
2023/01/26 11:32:33;;;;;;;;;;;;;;;21.44;24.55;98189.28;4934205;29;1261;-77
2023/01/26 11:35:08;;;;;;;;;;;;;;;21.08;24.72;98181.56;4928836;29;1899;-77
2023/01/26 11:37:35;;;;;;;;;;;;;;;20.96;25.30;98170.94;4928586;29;1173;-76
2023/01/26 11:40:10;;;;;;;;;;;;;;;20.99;25.07;98178.56;4932913;28;1255;-76
2023/01/26 11:42:38;;;;;;;;;;;;;;;21.13;24.83;98172.56;4965580;28;1253;-76
2023/01/26 11:45:42;;;;;;;;;;;;;;;21.49;24.44;98171.78;4967673;28;1410;-75
2023/01/26 11:48:25;;;;;;;;;;;;;;;21.46;24.52;98173.47;4928587;29;1200;-77
2023/01/26 11:50:55;;;;;;;;;;;;;;;21.16;25.25;98166.03;4926567;29;1535;-76
2023/01/26 11:53:39;;;;;;;;;;;;;;;21.23;24.83;98177.19;4928511;29;1232;-77
2023/01/26 11:56:16;;;;;;;;;;;;;;;20.93;25.23;98169.75;4928037;29;1906;-77
2023/01/26 11:59:02;;;;;;;;;;;;;;;21.17;25.17;98173.28;4918331;29;1058;-73
2023/01/26 12:01:29;;;;;;;;;;;;;;;21.60;25.03;98172.31;4926665;29;1165;-73
2023/01/26 12:03:55;;;;;;;;;;;;;;;21.58;25.49;98169.16;4926334;29;1294;-75
2023/01/26 12:06:33;;;;;;;;;;;;;;;21.26;26.30;98165.00;4927707;29;1227;-72
2023/01/26 12:09:11;;;;;;;;;;;;;;;21.43;26.64;98162.22;4935697;29;1224;-75
2023/01/26 12:11:41;;;;;;;;;;;;;;;21.58;26.31;98163.50;4945876;29;1228;-71
2023/01/26 12:14:07;;;;;;;;;;;;;;;21.59;26.51;98156.56;4940404;29;2067;-71
2023/01/26 12:16:35;;;;;;;;;;;;;;;21.61;26.67;98165.44;4956078;29;1010;-70
2023/01/26 12:19:25;;;;;;;;;;;;;;;21.70;26.71;98161.97;4990046;28;984;-77
2023/01/26 12:21:50;;;;;;;;;;;;;;;21.61;26.77;98153.31;5015437;28;1020;-70
2023/01/26 12:24:19;;;;;;;;;;;;;;;21.52;27.02;98159.59;5016644;28;907;-70
2023/01/26 12:26:46;;;;;;;;;;;;;;;21.74;26.72;98160.66;5016817;28;1016;-71
2023/01/26 12:29:17;;;;;;;;;;;;;;;21.96;26.52;98154.44;4998949;28;1127;-71
2023/01/26 12:31:52;;;;;;;;;;;;;;;21.77;27.17;98161.81;5016299;28;1254;-70
2023/01/26 12:34:18;;;;;;;;;;;;;;;21.29;27.68;98152.78;5016261;28;1914;-78
2023/01/26 12:36:55;;;;;;;;;;;;;;;20.98;28.33;98149.44;5000451;28;1306;-81
2023/01/26 12:39:23;;;;;;;;;;;;;;;20.89;28.57;98145.63;5016480;28;1037;-77
2023/01/26 12:41:58;;;;;;;;;;;;;;;20.80;28.14;98138.53;4998668;28;1066;-77
2023/01/26 12:44:23;;;;;;;;;;;;;;;21.19;27.74;98131.22;5016473;28;1080;-78
2023/01/26 12:46:50;;;;;;;;;;;;;;;21.23;27.62;98131.91;5015756;28;1190;-78
2023/01/26 12:49:21;;;;;;;;;;;;;;;21.63;27.08;98137.47;4997134;28;1267;-77
2023/01/26 12:52:06;;;;;;;;;;;;;;;21.20;27.40;98132.81;4999121;28;1195;-77
2023/01/26 12:54:53;;;;;;;;;;;;;;;21.11;27.68;98141.09;4991610;28;1906;-77
2023/01/26 12:57:20;;;;;;;;;;;;;;;21.07;27.35;98129.84;4977031;28;1223;-78
2023/01/26 12:59:46;;;;;;;;;;;;;;;21.33;27.33;98125.25;4993443;28;1294;-78
2023/01/26 13:02:14;;;;;;;;;;;;;;;21.13;27.31;98127.28;5010851;28;1258;-78
2023/01/26 13:04:40;;;;;;;;;;;;;;;21.32;27.04;98123.66;4994002;28;1514;-78
2023/01/26 13:07:25;;;;;;;;;;;;;;;21.12;27.30;98114.38;5010237;28;1215;-78
2023/01/26 13:10:09;;;;;;;;;;;;;;;21.01;27.36;98103.31;4991645;28;1247;-77
2023/01/26 13:12:47;;;;;;;;;;;;;;;20.89;27.77;98106.03;4992544;28;1334;-78
2023/01/26 13:15:13;;;;;;;;;;;;;;;21.44;26.71;98107.19;4992167;28;1957;-77
2023/01/26 13:17:54;;;;;;;;;;;;;;;21.32;26.91;98088.88;4977860;28;1215;-78
2023/01/26 13:20:24;;;;;;;;;;;;;;;21.35;26.72;98081.53;4992904;28;1271;-77
2023/01/26 13:22:50;;;;;;;;;;;;;;;20.80;27.57;98076.31;4975096;28;1184;-78
2023/01/26 13:25:17;;;;;;;;;;;;;;;20.68;27.88;98079.81;5011757;28;1175;-79
2023/01/26 13:27:44;;;;;;;;;;;;;;;21.03;27.33;98077.41;5015877;28;1203;-78
2023/01/26 13:30:22;;;;;;;;;;;;;;;21.37;26.67;98062.09;5013447;28;1203;-78
2023/01/26 13:32:48;;;;;;;;;;;;;;;21.37;26.64;98062.88;5015303;28;1230;-78
2023/01/26 13:35:16;;;;;;;;;;;;;;;21.29;26.56;98073.53;5015885;28;1961;-78
2023/01/26 13:37:49;;;;;;;;;;;;;;;21.05;26.74;98057.97;5006591;28;1261;-76
2023/01/26 13:40:31;;;;;;;;;;;;;;;20.80;27.16;98062.16;4993713;28;1188;-76
2023/01/26 13:43:07;;;;;;;;;;;;;;;20.88;27.33;98070.47;4995423;28;970;-76
2023/01/26 13:45:38;;;;;;;;;;;;;;;21.31;26.48;98082.44;4995338;28;966;-77
2023/01/26 13:48:04;;;;;;;;;;;;;;;21.44;26.51;98073.22;4995139;28;934;-77
2023/01/26 13:50:30;;;;;;;;;;;;;;;21.59;25.97;98068.81;4996592;28;985;-77
2023/01/26 13:52:56;;;;;;;;;;;;;;;21.14;26.58;98060.19;4995717;28;949;-76
2023/01/26 13:55:23;;;;;;;;;;;;;;;21.12;26.84;98069.13;4999402;28;1972;-76
2023/01/26 13:57:48;;;;;;;;;;;;;;;20.99;27.14;98066.19;4998789;28;930;-76
2023/01/26 14:00:14;;;;;;;;;;;;;;;21.28;26.47;98066.28;4999811;28;905;-77
2023/01/26 14:02:39;;;;;;;;;;;;;;;21.41;26.41;98059.97;4999866;28;935;-77
2023/01/26 14:05:05;;;;;;;;;;;;;;;21.29;26.42;98050.91;4999795;28;998;-76
2023/01/26 14:07:34;;;;;;;;;;;;;;;21.36;26.15;98043.53;4982505;28;952;-76
2023/01/26 14:10:00;;;;;;;;;;;;;;;20.90;26.99;98048.22;4998873;28;993;-77
2023/01/26 14:12:26;;;;;;;;;;;;;;;20.77;27.06;98048.88;4999827;28;975;-77
2023/01/26 14:14:53;;;;;;;;;;;;;;;21.04;27.08;98039.41;4982296;28;1971;-76
2023/01/26 14:17:31;;;;;;;;;;;;;;;21.23;26.60;98044.19;4998326;28;1054;-77
2023/01/26 14:19:57;;;;;;;;;;;;;;;21.49;26.25;98035.91;4999834;28;892;-76
2023/01/26 14:22:22;;;;;;;;;;;;;;;21.35;26.24;98047.56;4999484;28;1025;-77